This is the latest recevied weather packets stored in our database for station/object JF1AJE-13. If no packets are shown the sender has not sent any weather packets the latest 10 day(s).
| Time | Temp. | Humidity | Pressure | Rain* | Wind** | Luminosity | Snow |
|---|---|---|---|---|---|---|---|
| 1777349347 | 23.33° C | 47% | 1004.2 hPa | 0 mm | - | - | - |
| 1777348147 | 23.33° C | 48% | 1004.5 hPa | 0 mm | - | - | - |
| 1777346950 | 23.33° C | 48% | 1005 hPa | 0 mm | - | - | - |
| 1777345748 | 23.33° C | 49% | 1005.3 hPa | 0 mm | - | - | - |
| 1777344551 | 22.78° C | 47% | 1005.4 hPa | 0 mm | - | - | - |
| 1777343347 | 22.22° C | 49% | 1006.1 hPa | 0 mm | - | - | - |
| 1777342149 | 22.22° C | 51% | 1006.4 hPa | 0 mm | - | - | - |
| 1777337347 | 20.56° C | 59% | 1007.3 hPa | 0 mm | - | - | - |
| 1777336147 | 20° C | 62% | 1007.5 hPa | 0 mm | - | - | - |
| 1777334950 | 19.44° C | 62% | 1007.7 hPa | 0 mm | - | - | - |
| 1777333748 | 18.89° C | 62% | 1007.7 hPa | 0 mm | - | - | - |
| 1777332547 | 17.22° C | 64% | 1008 hPa | 0 mm | - | - | - |
| 1777331346 | 16.67° C | 64% | 1008 hPa | 0 mm | - | - | - |
| 1777330146 | 15° C | 68% | 1008.1 hPa | 0 mm | - | - | - |
| 1777328947 | 13.89° C | 77% | 1008.2 hPa | 0 mm | - | - | - |
| 1777327745 | 12.78° C | 80% | 1008.3 hPa | 0 mm | - | - | - |
| 1777326549 | 12.22° C | 83% | 1008.3 hPa | 0 mm | - | - | - |
| 1777325346 | 11.11° C | 86% | 1008 hPa | 0 mm | - | - | - |
| 1777324146 | 10.56° C | 87% | 1008 hPa | 0 mm | - | - | - |
| 1777322946 | 10.56° C | 87% | 1007.7 hPa | 0 mm | - | - | - |
| 1777321746 | 10° C | 86% | 1008 hPa | 0 mm | - | - | - |
| 1777320546 | 10° C | 86% | 1007.7 hPa | 0 mm | - | - | - |
| 1777319345 | 10° C | 86% | 1007.6 hPa | 0 mm | - | - | - |
| 1777318149 | 10.56° C | 86% | 1007.5 hPa | 0 mm | - | - | - |
| 1777316945 | 10.56° C | 86% | 1007.5 hPa | 0 mm | - | - | - |
* Rain latest hour (hover to see other rain measurements)
** Current wind speed in m/s (hover to see current wind gust speed)